Southeast Iowa Regional Airport
KBRL : now visible

Airfield :











YOU CAN JOIN US ON...

 
LOGIN :

Register | Disclaimer

   EN    FR    IT 

 









Legend :    VFR   Marginal VFR   IFR   Intensive IFR   Very Intensive IFR
Visi :
Ceiling :
>= 8 km
>= 3000ft
5 to 8 km
1000 to 3000 ft
1500m to 5 km
500 to 1000 ft
800 to 1500m
200 to 500 ft
< 800m
< 200 ft
Symbols :   Thunderstorms  Fog  Heavy snow  Heavy precipitations  Wind > 20 kt






- Airport Elevation : 698 ft
- IATA code : BRL


KBRL - Southeast Iowa Regional

CURRENT METAR :
  • 230053Z AUTO 00000KT 10SM CLR 22/19 A2999 RMK AO2 SLP153 T02220194

EXPIRED METARs :
  • 222353Z AUTO 00000KT 10SM CLR 26/19 A2998 RMK AO2 SLP149 T02560189 10283 20250 55007
  • 222253Z AUTO 27003KT 9SM CLR 26/19 A2998 RMK AO2 SLP149 T02610189
  • 222153Z AUTO 00000KT 10SM CLR 27/20 A2999 RMK AO2 SLP151 T02670200
  • 222053Z AUTO 22004KT 10SM CLR 26/18 A3000 RMK AO2 SLP156 T02560183 58015

TAF KBRL
Valid from the 23 at 00:00 until the 24 at 00:00 UTC


222320Z 2300/2324 VRB03KT P6SM BKN150
FM231500 23005KT P6SM SCT030
KZAU FIR / North America



MET'MAP, your aeronautical weather chart ! - Copyright ORBIFLY December 2007 - Disclaimer

ORBIFLY MET'MAP TEAM :

Programming & Development : Alexandra Zaïnal
Original concept : Baudouin d'Aumeries
Technical & hardware support : Manuel Goepfert
Assistance : Marc-Olivier Méhu




SOURCES & CREDITS :

   NOAA       Earth
Advisory